sensor_id;sensor_type;location;lat;lon;timestamp;temperature;humidity
4425;DHT22;2225;53.568;13.266;2023-02-28T00:01:24;1.30;92.00
4425;DHT22;2225;53.568;13.266;2023-02-28T00:03:51;1.30;92.00
4425;DHT22;2225;53.568;13.266;2023-02-28T00:06:19;1.30;92.00
4425;DHT22;2225;53.568;13.266;2023-02-28T00:08:47;1.30;92.00
4425;DHT22;2225;53.568;13.266;2023-02-28T00:11:15;1.30;92.00
4425;DHT22;2225;53.568;13.266;2023-02-28T00:13:44;1.20;92.00
4425;DHT22;2225;53.568;13.266;2023-02-28T00:16:18;1.20;91.90
4425;DHT22;2225;53.568;13.266;2023-02-28T00:18:47;1.20;92.00
4425;DHT22;2225;53.568;13.266;2023-02-28T00:21:15;1.20;92.00
4425;DHT22;2225;53.568;13.266;2023-02-28T00:23:42;1.10;92.00
4425;DHT22;2225;53.568;13.266;2023-02-28T00:26:10;1.20;92.00
4425;DHT22;2225;53.568;13.266;2023-02-28T00:28:38;1.10;92.00
4425;DHT22;2225;53.568;13.266;2023-02-28T00:31:05;1.10;91.80
4425;DHT22;2225;53.568;13.266;2023-02-28T00:33:32;1.00;91.80
4425;DHT22;2225;53.568;13.266;2023-02-28T00:36:07;1.00;91.80
4425;DHT22;2225;53.568;13.266;2023-02-28T00:38:37;1.10;91.90
4425;DHT22;2225;53.568;13.266;2023-02-28T00:41:05;1.00;92.00
4425;DHT22;2225;53.568;13.266;2023-02-28T00:43:34;1.00;92.00
4425;DHT22;2225;53.568;13.266;2023-02-28T00:46:03;0.90;92.00
4425;DHT22;2225;53.568;13.266;2023-02-28T00:48:30;0.90;92.10
4425;DHT22;2225;53.568;13.266;2023-02-28T00:50:57;0.90;92.30
4425;DHT22;2225;53.568;13.266;2023-02-28T00:53:24;0.90;92.20
4425;DHT22;2225;53.568;13.266;2023-02-28T00:55:51;0.90;92.20
4425;DHT22;2225;53.568;13.266;2023-02-28T00:58:18;0.90;92.10
4425;DHT22;2225;53.568;13.266;2023-02-28T01:00:45;0.90;92.00
4425;DHT22;2225;53.568;13.266;2023-02-28T01:03:20;0.90;92.00
4425;DHT22;2225;53.568;13.266;2023-02-28T01:05:47;0.90;92.00
4425;DHT22;2225;53.568;13.266;2023-02-28T01:08:16;0.80;92.10
4425;DHT22;2225;53.568;13.266;2023-02-28T01:10:43;0.80;92.20
4425;DHT22;2225;53.568;13.266;2023-02-28T01:13:10;0.80;92.30
4425;DHT22;2225;53.568;13.266;2023-02-28T01:15:42;0.80;92.30
4425;DHT22;2225;53.568;13.266;2023-02-28T01:18:12;0.80;92.40
4425;DHT22;2225;53.568;13.266;2023-02-28T01:20:39;0.70;92.30
4425;DHT22;2225;53.568;13.266;2023-02-28T01:23:05;0.70;92.40
4425;DHT22;2225;53.568;13.266;2023-02-28T01:25:36;0.70;92.40
4425;DHT22;2225;53.568;13.266;2023-02-28T01:28:04;0.70;92.40
4425;DHT22;2225;53.568;13.266;2023-02-28T01:30:32;0.60;92.40
4425;DHT22;2225;53.568;13.266;2023-02-28T01:32:59;0.60;92.40
4425;DHT22;2225;53.568;13.266;2023-02-28T01:35:26;0.60;92.40
4425;DHT22;2225;53.568;13.266;2023-02-28T01:37:53;0.60;92.40
4425;DHT22;2225;53.568;13.266;2023-02-28T01:40:20;0.60;92.40
4425;DHT22;2225;53.568;13.266;2023-02-28T01:42:47;0.60;92.40
4425;DHT22;2225;53.568;13.266;2023-02-28T01:45:26;0.50;92.40
4425;DHT22;2225;53.568;13.266;2023-02-28T01:47:58;0.50;92.30
4425;DHT22;2225;53.568;13.266;2023-02-28T01:50:30;0.50;92.40
4425;DHT22;2225;53.568;13.266;2023-02-28T01:53:02;0.50;92.50
4425;DHT22;2225;53.568;13.266;2023-02-28T01:55:31;0.50;92.60
4425;DHT22;2225;53.568;13.266;2023-02-28T01:58:02;0.50;92.80
4425;DHT22;2225;53.568;13.266;2023-02-28T02:00:31;0.50;92.80
4425;DHT22;2225;53.568;13.266;2023-02-28T02:03:13;0.40;92.70
4425;DHT22;2225;53.568;13.266;2023-02-28T02:05:42;0.40;93.00
4425;DHT22;2225;53.568;13.266;2023-02-28T02:08:21;0.40;92.90
4425;DHT22;2225;53.568;13.266;2023-02-28T02:10:53;0.40;92.90
4425;DHT22;2225;53.568;13.266;2023-02-28T02:13:45;0.40;92.90
4425;DHT22;2225;53.568;13.266;2023-02-28T02:16:58;0.40;92.90
4425;DHT22;2225;53.568;13.266;2023-02-28T02:23:01;0.40;93.00
4425;DHT22;2225;53.568;13.266;2023-02-28T02:41:24;0.30;92.70
4425;DHT22;2225;53.568;13.266;2023-02-28T02:44:04;0.20;92.70
4425;DHT22;2225;53.568;13.266;2023-02-28T02:46:45;0.20;92.80
4425;DHT22;2225;53.568;13.266;2023-02-28T02:49:24;0.20;92.80
4425;DHT22;2225;53.568;13.266;2023-02-28T02:51:55;0.20;92.90
4425;DHT22;2225;53.568;13.266;2023-02-28T02:54:26;0.10;92.80
4425;DHT22;2225;53.568;13.266;2023-02-28T02:56:59;0.10;92.80
4425;DHT22;2225;53.568;13.266;2023-02-28T02:59:30;0.10;92.80
4425;DHT22;2225;53.568;13.266;2023-02-28T03:02:02;0.10;92.90
4425;DHT22;2225;53.568;13.266;2023-02-28T03:04:36;0.10;92.90
4425;DHT22;2225;53.568;13.266;2023-02-28T03:07:06;0.10;92.80
4425;DHT22;2225;53.568;13.266;2023-02-28T03:09:34;0.10;92.80
4425;DHT22;2225;53.568;13.266;2023-02-28T03:12:02;0.10;92.70
4425;DHT22;2225;53.568;13.266;2023-02-28T03:14:51;0.00;92.80
4425;DHT22;2225;53.568;13.266;2023-02-28T03:17:41;0.00;92.90
4425;DHT22;2225;53.568;13.266;2023-02-28T03:20:34;0.00;92.90
4425;DHT22;2225;53.568;13.266;2023-02-28T03:26:07;0.00;92.90
4425;DHT22;2225;53.568;13.266;2023-02-28T03:28:41;0.00;92.90
4425;DHT22;2225;53.568;13.266;2023-02-28T03:34:12;-0.10;93.30
4425;DHT22;2225;53.568;13.266;2023-02-28T03:36:48;-0.10;92.90
4425;DHT22;2225;53.568;13.266;2023-02-28T03:39:31;-0.10;93.00
4425;DHT22;2225;53.568;13.266;2023-02-28T03:42:05;-0.10;93.00
4425;DHT22;2225;53.568;13.266;2023-02-28T03:44:40;-0.10;92.90
4425;DHT22;2225;53.568;13.266;2023-02-28T03:47:12;-0.10;92.90
4425;DHT22;2225;53.568;13.266;2023-02-28T03:49:57;-0.10;93.00
4425;DHT22;2225;53.568;13.266;2023-02-28T03:52:33;-0.10;93.10
4425;DHT22;2225;53.568;13.266;2023-02-28T03:55:06;-0.20;93.00
4425;DHT22;2225;53.568;13.266;2023-02-28T03:58:05;-0.20;93.00
4425;DHT22;2225;53.568;13.266;2023-02-28T04:00:41;-0.20;93.00
4425;DHT22;2225;53.568;13.266;2023-02-28T04:03:13;-0.20;92.90
4425;DHT22;2225;53.568;13.266;2023-02-28T04:05:54;-0.20;92.90
4425;DHT22;2225;53.568;13.266;2023-02-28T04:08:22;-0.20;93.00
4425;DHT22;2225;53.568;13.266;2023-02-28T04:11:16;-0.20;92.80
4425;DHT22;2225;53.568;13.266;2023-02-28T04:13:54;-0.20;93.00
4425;DHT22;2225;53.568;13.266;2023-02-28T04:16:21;-0.30;92.80
4425;DHT22;2225;53.568;13.266;2023-02-28T04:19:01;-0.30;92.80
4425;DHT22;2225;53.568;13.266;2023-02-28T04:21:39;-0.30;92.80
4425;DHT22;2225;53.568;13.266;2023-02-28T04:24:16;-0.30;92.90
4425;DHT22;2225;53.568;13.266;2023-02-28T04:26:50;-0.30;92.80
4425;DHT22;2225;53.568;13.266;2023-02-28T04:29:21;-0.30;92.90
4425;DHT22;2225;53.568;13.266;2023-02-28T04:31:50;-0.40;92.90
4425;DHT22;2225;53.568;13.266;2023-02-28T04:34:20;-0.40;92.90
4425;DHT22;2225;53.568;13.266;2023-02-28T04:36:48;-0.40;92.90
4425;DHT22;2225;53.568;13.266;2023-02-28T04:39:37;-0.40;92.90
4425;DHT22;2225;53.568;13.266;2023-02-28T04:42:04;-0.40;92.90
4425;DHT22;2225;53.568;13.266;2023-02-28T04:44:31;-0.40;92.90
4425;DHT22;2225;53.568;13.266;2023-02-28T04:46:58;-0.40;93.00
4425;DHT22;2225;53.568;13.266;2023-02-28T04:49:25;-0.40;93.00
4425;DHT22;2225;53.568;13.266;2023-02-28T04:51:52;-0.40;93.20
4425;DHT22;2225;53.568;13.266;2023-02-28T04:54:19;-0.40;93.20
4425;DHT22;2225;53.568;13.266;2023-02-28T04:56:46;-0.40;93.20
4425;DHT22;2225;53.568;13.266;2023-02-28T04:59:16;-0.40;93.10
4425;DHT22;2225;53.568;13.266;2023-02-28T05:01:47;-0.40;93.10
4425;DHT22;2225;53.568;13.266;2023-02-28T05:04:15;-0.50;93.10
4425;DHT22;2225;53.568;13.266;2023-02-28T05:06:42;-0.40;93.10
4425;DHT22;2225;53.568;13.266;2023-02-28T05:09:09;-0.50;93.10
4425;DHT22;2225;53.568;13.266;2023-02-28T05:11:38;-0.50;93.10
4425;DHT22;2225;53.568;13.266;2023-02-28T05:14:12;-0.50;92.90
4425;DHT22;2225;53.568;13.266;2023-02-28T05:16:40;-0.50;92.90
4425;DHT22;2225;53.568;13.266;2023-02-28T05:19:07;-0.50;92.90
4425;DHT22;2225;53.568;13.266;2023-02-28T05:21:54;-0.50;92.80
4425;DHT22;2225;53.568;13.266;2023-02-28T05:24:21;-0.50;92.90
4425;DHT22;2225;53.568;13.266;2023-02-28T05:26:53;-0.50;92.80
4425;DHT22;2225;53.568;13.266;2023-02-28T05:29:21;-0.50;92.80
4425;DHT22;2225;53.568;13.266;2023-02-28T05:31:48;-0.60;92.70
4425;DHT22;2225;53.568;13.266;2023-02-28T05:34:15;-0.60;92.70
4425;DHT22;2225;53.568;13.266;2023-02-28T05:36:42;-0.60;92.70
4425;DHT22;2225;53.568;13.266;2023-02-28T05:39:09;-0.60;93.00
4425;DHT22;2225;53.568;13.266;2023-02-28T05:41:43;-0.60;92.80
4425;DHT22;2225;53.568;13.266;2023-02-28T05:44:10;-0.60;92.80
4425;DHT22;2225;53.568;13.266;2023-02-28T05:46:37;-0.70;92.70
4425;DHT22;2225;53.568;13.266;2023-02-28T05:49:04;-0.70;92.60
4425;DHT22;2225;53.568;13.266;2023-02-28T05:51:32;-0.70;92.70
4425;DHT22;2225;53.568;13.266;2023-02-28T05:54:01;-0.70;92.80
4425;DHT22;2225;53.568;13.266;2023-02-28T05:56:28;-0.70;92.80
4425;DHT22;2225;53.568;13.266;2023-02-28T05:58:55;-0.70;92.90
4425;DHT22;2225;53.568;13.266;2023-02-28T06:01:41;-0.70;92.90
4425;DHT22;2225;53.568;13.266;2023-02-28T06:04:16;-0.70;93.00
4425;DHT22;2225;53.568;13.266;2023-02-28T06:06:57;-0.70;92.90
4425;DHT22;2225;53.568;13.266;2023-02-28T06:09:24;-0.70;93.00
4425;DHT22;2225;53.568;13.266;2023-02-28T06:11:51;-0.70;93.00
4425;DHT22;2225;53.568;13.266;2023-02-28T06:14:19;-0.70;93.00
4425;DHT22;2225;53.568;13.266;2023-02-28T06:16:46;-0.70;93.10
4425;DHT22;2225;53.568;13.266;2023-02-28T06:19:13;-0.70;93.10
4425;DHT22;2225;53.568;13.266;2023-02-28T06:21:41;-0.70;93.10
4425;DHT22;2225;53.568;13.266;2023-02-28T06:24:09;-0.70;93.20
4425;DHT22;2225;53.568;13.266;2023-02-28T06:26:36;-0.70;93.10
4425;DHT22;2225;53.568;13.266;2023-02-28T06:29:03;-0.70;93.20
4425;DHT22;2225;53.568;13.266;2023-02-28T06:31:30;-0.60;93.20
4425;DHT22;2225;53.568;13.266;2023-02-28T06:33:58;-0.60;93.20
4425;DHT22;2225;53.568;13.266;2023-02-28T06:36:25;-0.60;93.30
4425;DHT22;2225;53.568;13.266;2023-02-28T06:38:51;-0.60;93.30
4425;DHT22;2225;53.568;13.266;2023-02-28T06:41:23;-0.50;93.40
4425;DHT22;2225;53.568;13.266;2023-02-28T06:43:51;-0.50;93.50
4425;DHT22;2225;53.568;13.266;2023-02-28T06:46:18;-0.50;93.60
4425;DHT22;2225;53.568;13.266;2023-02-28T06:48:46;-0.40;93.70
4425;DHT22;2225;53.568;13.266;2023-02-28T06:51:16;-0.40;93.50
4425;DHT22;2225;53.568;13.266;2023-02-28T06:53:46;-0.40;93.60
4425;DHT22;2225;53.568;13.266;2023-02-28T06:56:15;-0.30;93.60
4425;DHT22;2225;53.568;13.266;2023-02-28T06:58:46;-0.30;93.70
4425;DHT22;2225;53.568;13.266;2023-02-28T07:01:15;-0.20;93.80
4425;DHT22;2225;53.568;13.266;2023-02-28T07:03:42;-0.10;93.80
4425;DHT22;2225;53.568;13.266;2023-02-28T07:06:09;-0.10;93.80
4425;DHT22;2225;53.568;13.266;2023-02-28T07:08:36;0.00;93.90
4425;DHT22;2225;53.568;13.266;2023-02-28T07:11:04;0.00;93.90
4425;DHT22;2225;53.568;13.266;2023-02-28T07:13:30;0.00;94.40
4425;DHT22;2225;53.568;13.266;2023-02-28T07:16:02;0.10;94.30
4425;DHT22;2225;53.568;13.266;2023-02-28T07:18:30;0.10;94.40
4425;DHT22;2225;53.568;13.266;2023-02-28T07:21:01;0.20;94.50
4425;DHT22;2225;53.568;13.266;2023-02-28T07:23:28;0.30;94.50
4425;DHT22;2225;53.568;13.266;2023-02-28T07:25:55;0.30;94.50
4425;DHT22;2225;53.568;13.266;2023-02-28T07:28:22;0.40;94.50
4425;DHT22;2225;53.568;13.266;2023-02-28T07:30:49;0.50;94.70
4425;DHT22;2225;53.568;13.266;2023-02-28T07:33:16;0.50;94.60
4425;DHT22;2225;53.568;13.266;2023-02-28T07:35:43;0.60;94.50
4425;DHT22;2225;53.568;13.266;2023-02-28T07:38:10;0.70;94.50
4425;DHT22;2225;53.568;13.266;2023-02-28T07:40:40;0.80;94.50
4425;DHT22;2225;53.568;13.266;2023-02-28T07:43:07;0.90;94.90
4425;DHT22;2225;53.568;13.266;2023-02-28T07:45:34;1.00;94.60
4425;DHT22;2225;53.568;13.266;2023-02-28T07:48:01;1.10;94.60
4425;DHT22;2225;53.568;13.266;2023-02-28T07:50:28;1.20;94.60
4425;DHT22;2225;53.568;13.266;2023-02-28T07:53:00;1.30;94.60
4425;DHT22;2225;53.568;13.266;2023-02-28T07:55:27;1.40;94.60
4425;DHT22;2225;53.568;13.266;2023-02-28T07:57:54;1.50;94.70
4425;DHT22;2225;53.568;13.266;2023-02-28T08:00:21;1.60;94.70
4425;DHT22;2225;53.568;13.266;2023-02-28T08:02:48;1.70;94.70
4425;DHT22;2225;53.568;13.266;2023-02-28T08:05:16;1.70;94.70
4425;DHT22;2225;53.568;13.266;2023-02-28T08:07:49;1.80;94.60
4425;DHT22;2225;53.568;13.266;2023-02-28T08:10:16;1.90;94.70
4425;DHT22;2225;53.568;13.266;2023-02-28T08:12:43;2.10;94.70
4425;DHT22;2225;53.568;13.266;2023-02-28T08:15:10;2.10;94.70
4425;DHT22;2225;53.568;13.266;2023-02-28T08:17:37;2.20;94.70
4425;DHT22;2225;53.568;13.266;2023-02-28T08:20:04;2.30;94.70
4425;DHT22;2225;53.568;13.266;2023-02-28T08:22:31;2.40;94.70
4425;DHT22;2225;53.568;13.266;2023-02-28T08:24:58;2.50;94.70
4425;DHT22;2225;53.568;13.266;2023-02-28T08:27:25;2.60;94.70
4425;DHT22;2225;53.568;13.266;2023-02-28T08:29:52;2.70;94.70
4425;DHT22;2225;53.568;13.266;2023-02-28T08:32:19;2.80;94.70
4425;DHT22;2225;53.568;13.266;2023-02-28T08:34:55;2.90;95.00
4425;DHT22;2225;53.568;13.266;2023-02-28T08:37:22;3.00;94.90
4425;DHT22;2225;53.568;13.266;2023-02-28T08:39:49;3.10;94.90
4425;DHT22;2225;53.568;13.266;2023-02-28T08:42:17;3.20;94.80
4425;DHT22;2225;53.568;13.266;2023-02-28T08:44:44;3.30;94.70
4425;DHT22;2225;53.568;13.266;2023-02-28T08:47:11;3.40;94.60
4425;DHT22;2225;53.568;13.266;2023-02-28T08:49:38;3.50;94.60
4425;DHT22;2225;53.568;13.266;2023-02-28T08:52:05;3.60;94.50
4425;DHT22;2225;53.568;13.266;2023-02-28T08:54:32;3.70;94.60
4425;DHT22;2225;53.568;13.266;2023-02-28T08:57:00;3.80;94.50
4425;DHT22;2225;53.568;13.266;2023-02-28T08:59:27;3.90;94.50
4425;DHT22;2225;53.568;13.266;2023-02-28T09:01:54;4.00;94.40
4425;DHT22;2225;53.568;13.266;2023-02-28T09:04:21;4.10;94.30
4425;DHT22;2225;53.568;13.266;2023-02-28T09:06:50;4.20;94.30
4425;DHT22;2225;53.568;13.266;2023-02-28T09:09:17;4.40;94.30
4425;DHT22;2225;53.568;13.266;2023-02-28T09:11:44;4.50;94.30
4425;DHT22;2225;53.568;13.266;2023-02-28T09:14:11;4.60;94.30
4425;DHT22;2225;53.568;13.266;2023-02-28T09:16:38;4.70;94.20
4425;DHT22;2225;53.568;13.266;2023-02-28T09:19:05;4.80;94.00
4425;DHT22;2225;53.568;13.266;2023-02-28T09:21:32;4.90;93.70
4425;DHT22;2225;53.568;13.266;2023-02-28T09:23:59;5.00;93.50
4425;DHT22;2225;53.568;13.266;2023-02-28T09:26:27;5.10;93.40
4425;DHT22;2225;53.568;13.266;2023-02-28T09:29:08;5.10;93.30
4425;DHT22;2225;53.568;13.266;2023-02-28T09:31:35;5.20;93.20
4425;DHT22;2225;53.568;13.266;2023-02-28T09:34:03;5.30;93.10
4425;DHT22;2225;53.568;13.266;2023-02-28T09:36:30;5.40;93.00
4425;DHT22;2225;53.568;13.266;2023-02-28T09:39:10;5.50;92.60
4425;DHT22;2225;53.568;13.266;2023-02-28T09:41:43;5.60;92.30
4425;DHT22;2225;53.568;13.266;2023-02-28T09:44:29;5.70;92.30
4425;DHT22;2225;53.568;13.266;2023-02-28T09:47:05;5.80;92.40
4425;DHT22;2225;53.568;13.266;2023-02-28T09:49:43;5.80;92.30
4425;DHT22;2225;53.568;13.266;2023-02-28T09:52:28;6.00;92.20
4425;DHT22;2225;53.568;13.266;2023-02-28T09:58:16;6.20;91.20
4425;DHT22;2225;53.568;13.266;2023-02-28T10:00:54;6.30;90.80
4425;DHT22;2225;53.568;13.266;2023-02-28T10:03:29;6.40;90.40
4425;DHT22;2225;53.568;13.266;2023-02-28T10:06:17;6.50;90.30
4425;DHT22;2225;53.568;13.266;2023-02-28T10:08:56;6.60;89.90
4425;DHT22;2225;53.568;13.266;2023-02-28T10:11:28;6.60;89.80
4425;DHT22;2225;53.568;13.266;2023-02-28T10:14:01;6.70;89.20
4425;DHT22;2225;53.568;13.266;2023-02-28T10:16:50;6.80;87.60
4425;DHT22;2225;53.568;13.266;2023-02-28T10:19:34;6.90;87.50
4425;DHT22;2225;53.568;13.266;2023-02-28T10:22:36;6.90;87.80
4425;DHT22;2225;53.568;13.266;2023-02-28T10:25:22;7.00;85.50
4425;DHT22;2225;53.568;13.266;2023-02-28T10:27:59;7.10;86.70
4425;DHT22;2225;53.568;13.266;2023-02-28T10:30:31;7.10;86.80
4425;DHT22;2225;53.568;13.266;2023-02-28T10:32:58;7.20;86.90
4425;DHT22;2225;53.568;13.266;2023-02-28T10:35:26;7.20;86.10
4425;DHT22;2225;53.568;13.266;2023-02-28T10:37:59;7.30;85.00
4425;DHT22;2225;53.568;13.266;2023-02-28T10:40:31;7.40;85.30
4425;DHT22;2225;53.568;13.266;2023-02-28T10:45:40;7.50;82.20
4425;DHT22;2225;53.568;13.266;2023-02-28T10:56:14;7.80;78.40
4425;DHT22;2225;53.568;13.266;2023-02-28T10:59:00;7.80;79.20
4425;DHT22;2225;53.568;13.266;2023-02-28T11:01:47;7.80;80.00
4425;DHT22;2225;53.568;13.266;2023-02-28T11:04:18;7.90;81.00
4425;DHT22;2225;53.568;13.266;2023-02-28T11:06:46;7.90;79.80
4425;DHT22;2225;53.568;13.266;2023-02-28T11:09:38;8.00;80.50
4425;DHT22;2225;53.568;13.266;2023-02-28T11:12:08;8.00;79.00
4425;DHT22;2225;53.568;13.266;2023-02-28T11:14:49;8.10;79.80
4425;DHT22;2225;53.568;13.266;2023-02-28T11:17:27;8.20;80.30
4425;DHT22;2225;53.568;13.266;2023-02-28T11:19:58;8.20;78.10
4425;DHT22;2225;53.568;13.266;2023-02-28T11:22:35;8.30;78.80
4425;DHT22;2225;53.568;13.266;2023-02-28T11:25:10;8.30;78.40
4425;DHT22;2225;53.568;13.266;2023-02-28T11:27:48;8.40;78.80
4425;DHT22;2225;53.568;13.266;2023-02-28T11:30:37;8.40;78.40
4425;DHT22;2225;53.568;13.266;2023-02-28T11:33:30;8.50;77.70
4425;DHT22;2225;53.568;13.266;2023-02-28T11:36:03;8.50;76.40
4425;DHT22;2225;53.568;13.266;2023-02-28T11:38:35;8.60;77.20
4425;DHT22;2225;53.568;13.266;2023-02-28T11:41:05;8.60;76.80
4425;DHT22;2225;53.568;13.266;2023-02-28T11:47:15;8.70;77.90
4425;DHT22;2225;53.568;13.266;2023-02-28T11:50:20;8.70;77.00
4425;DHT22;2225;53.568;13.266;2023-02-28T11:53:23;8.70;76.40
4425;DHT22;2225;53.568;13.266;2023-02-28T12:02:24;8.80;76.00
4425;DHT22;2225;53.568;13.266;2023-02-28T12:08:27;8.90;74.90
4425;DHT22;2225;53.568;13.266;2023-02-28T12:11:46;8.90;76.60
4425;DHT22;2225;53.568;13.266;2023-02-28T12:23:38;9.10;74.90
4425;DHT22;2225;53.568;13.266;2023-02-28T12:26:19;9.10;76.30
4425;DHT22;2225;53.568;13.266;2023-02-28T12:28:59;9.10;75.60
4425;DHT22;2225;53.568;13.266;2023-02-28T12:31:36;9.20;74.60
4425;DHT22;2225;53.568;13.266;2023-02-28T12:34:19;9.20;74.30
4425;DHT22;2225;53.568;13.266;2023-02-28T12:36:49;9.20;75.00
4425;DHT22;2225;53.568;13.266;2023-02-28T12:39:32;9.20;74.80
4425;DHT22;2225;53.568;13.266;2023-02-28T12:42:28;9.30;74.50
4425;DHT22;2225;53.568;13.266;2023-02-28T12:44:59;9.30;73.10
4425;DHT22;2225;53.568;13.266;2023-02-28T12:47:29;9.30;73.20
4425;DHT22;2225;53.568;13.266;2023-02-28T12:50:05;9.40;73.30
4425;DHT22;2225;53.568;13.266;2023-02-28T12:53:06;9.40;72.60
4425;DHT22;2225;53.568;13.266;2023-02-28T12:55:46;9.40;72.90
4425;DHT22;2225;53.568;13.266;2023-02-28T12:58:28;9.50;73.70
4425;DHT22;2225;53.568;13.266;2023-02-28T13:04:41;9.50;71.30
4425;DHT22;2225;53.568;13.266;2023-02-28T13:10:06;9.50;71.90
4425;DHT22;2225;53.568;13.266;2023-02-28T13:12:34;9.50;70.20
4425;DHT22;2225;53.568;13.266;2023-02-28T13:15:08;9.50;72.00
4425;DHT22;2225;53.568;13.266;2023-02-28T13:17:52;9.50;72.20
4425;DHT22;2225;53.568;13.266;2023-02-28T13:20:24;9.50;71.50
4425;DHT22;2225;53.568;13.266;2023-02-28T13:22:54;9.50;70.00
4425;DHT22;2225;53.568;13.266;2023-02-28T13:27:49;9.50;70.90
4425;DHT22;2225;53.568;13.266;2023-02-28T13:33:22;9.60;70.40
4425;DHT22;2225;53.568;13.266;2023-02-28T13:38:44;9.70;68.60
4425;DHT22;2225;53.568;13.266;2023-02-28T13:49:25;9.70;69.20
4425;DHT22;2225;53.568;13.266;2023-02-28T14:00:57;9.70;68.40
4425;DHT22;2225;53.568;13.266;2023-02-28T14:03:51;9.80;69.40
4425;DHT22;2225;53.568;13.266;2023-02-28T14:06:41;9.80;68.50
4425;DHT22;2225;53.568;13.266;2023-02-28T14:09:30;9.80;67.10
4425;DHT22;2225;53.568;13.266;2023-02-28T14:15:43;9.80;68.50
4425;DHT22;2225;53.568;13.266;2023-02-28T14:18:25;9.80;67.30
4425;DHT22;2225;53.568;13.266;2023-02-28T14:21:03;9.80;67.30
4425;DHT22;2225;53.568;13.266;2023-02-28T14:27:14;9.80;66.50
4425;DHT22;2225;53.568;13.266;2023-02-28T14:35:58;9.80;67.00
4425;DHT22;2225;53.568;13.266;2023-02-28T14:38:33;9.80;66.80
4425;DHT22;2225;53.568;13.266;2023-02-28T14:41:16;9.80;65.40
4425;DHT22;2225;53.568;13.266;2023-02-28T14:44:20;9.80;65.50
4425;DHT22;2225;53.568;13.266;2023-02-28T14:46:59;9.80;63.80
4425;DHT22;2225;53.568;13.266;2023-02-28T14:49:37;9.70;63.80
4425;DHT22;2225;53.568;13.266;2023-02-28T14:54:39;9.70;64.70
4425;DHT22;2225;53.568;13.266;2023-02-28T14:57:24;9.70;64.10
4425;DHT22;2225;53.568;13.266;2023-02-28T15:02:34;9.70;61.00
4425;DHT22;2225;53.568;13.266;2023-02-28T15:05:24;9.70;62.50
4425;DHT22;2225;53.568;13.266;2023-02-28T15:10:56;9.70;63.40
4425;DHT22;2225;53.568;13.266;2023-02-28T15:13:38;9.70;63.90
4425;DHT22;2225;53.568;13.266;2023-02-28T15:18:56;9.70;63.50
4425;DHT22;2225;53.568;13.266;2023-02-28T15:21:34;9.60;63.70
4425;DHT22;2225;53.568;13.266;2023-02-28T15:24:06;9.60;64.20
4425;DHT22;2225;53.568;13.266;2023-02-28T15:26:38;9.60;64.80
4425;DHT22;2225;53.568;13.266;2023-02-28T15:29:11;9.60;64.90
4425;DHT22;2225;53.568;13.266;2023-02-28T15:31:50;9.60;65.20
4425;DHT22;2225;53.568;13.266;2023-02-28T15:40:12;9.50;65.10
4425;DHT22;2225;53.568;13.266;2023-02-28T15:48:23;9.40;65.00
4425;DHT22;2225;53.568;13.266;2023-02-28T15:53:48;9.30;65.00
4425;DHT22;2225;53.568;13.266;2023-02-28T15:56:29;9.30;64.80
4425;DHT22;2225;53.568;13.266;2023-02-28T15:59:03;9.30;64.20
4425;DHT22;2225;53.568;13.266;2023-02-28T16:01:34;9.20;64.60
4425;DHT22;2225;53.568;13.266;2023-02-28T16:04:14;9.20;65.20
4425;DHT22;2225;53.568;13.266;2023-02-28T16:06:44;9.20;65.30
4425;DHT22;2225;53.568;13.266;2023-02-28T16:09:16;9.10;65.50
4425;DHT22;2225;53.568;13.266;2023-02-28T16:11:47;9.10;65.60
4425;DHT22;2225;53.568;13.266;2023-02-28T16:14:18;9.00;65.70
4425;DHT22;2225;53.568;13.266;2023-02-28T16:16:50;9.00;65.80
4425;DHT22;2225;53.568;13.266;2023-02-28T16:19:23;8.90;66.00
4425;DHT22;2225;53.568;13.266;2023-02-28T16:21:50;8.90;66.20
4425;DHT22;2225;53.568;13.266;2023-02-28T16:24:17;8.80;66.30
4425;DHT22;2225;53.568;13.266;2023-02-28T16:26:48;8.80;66.20
4425;DHT22;2225;53.568;13.266;2023-02-28T16:29:26;8.70;66.10
4425;DHT22;2225;53.568;13.266;2023-02-28T16:31:56;8.60;66.10
4425;DHT22;2225;53.568;13.266;2023-02-28T16:34:23;8.60;66.50
4425;DHT22;2225;53.568;13.266;2023-02-28T16:36:50;8.50;66.60
4425;DHT22;2225;53.568;13.266;2023-02-28T16:39:17;8.40;67.10
4425;DHT22;2225;53.568;13.266;2023-02-28T16:41:48;8.40;66.00
4425;DHT22;2225;53.568;13.266;2023-02-28T16:44:28;8.30;66.60
4425;DHT22;2225;53.568;13.266;2023-02-28T16:46:56;8.30;66.70
4425;DHT22;2225;53.568;13.266;2023-02-28T16:49:23;8.20;67.20
4425;DHT22;2225;53.568;13.266;2023-02-28T16:51:50;8.10;67.50
4425;DHT22;2225;53.568;13.266;2023-02-28T16:54:17;8.10;67.70
4425;DHT22;2225;53.568;13.266;2023-02-28T16:56:47;8.00;67.80
4425;DHT22;2225;53.568;13.266;2023-02-28T16:59:19;7.90;68.20
4425;DHT22;2225;53.568;13.266;2023-02-28T17:01:48;7.90;68.50
4425;DHT22;2225;53.568;13.266;2023-02-28T17:04:16;7.80;68.60
4425;DHT22;2225;53.568;13.266;2023-02-28T17:06:43;7.70;68.80
4425;DHT22;2225;53.568;13.266;2023-02-28T17:09:22;7.60;69.00
4425;DHT22;2225;53.568;13.266;2023-02-28T17:11:56;7.60;69.20
4425;DHT22;2225;53.568;13.266;2023-02-28T17:14:23;7.50;69.10
4425;DHT22;2225;53.568;13.266;2023-02-28T17:16:50;7.40;69.10
4425;DHT22;2225;53.568;13.266;2023-02-28T17:19:17;7.30;69.20
4425;DHT22;2225;53.568;13.266;2023-02-28T17:21:46;7.20;69.50
4425;DHT22;2225;53.568;13.266;2023-02-28T17:24:13;7.20;69.80
4425;DHT22;2225;53.568;13.266;2023-02-28T17:26:55;7.10;70.10
4425;DHT22;2225;53.568;13.266;2023-02-28T17:29:22;7.10;70.30
4425;DHT22;2225;53.568;13.266;2023-02-28T17:31:50;7.00;70.40
4425;DHT22;2225;53.568;13.266;2023-02-28T17:34:18;6.90;70.70
4425;DHT22;2225;53.568;13.266;2023-02-28T17:36:47;6.80;70.90
4425;DHT22;2225;53.568;13.266;2023-02-28T17:39:16;6.70;71.20
4425;DHT22;2225;53.568;13.266;2023-02-28T17:41:51;6.70;71.50
4425;DHT22;2225;53.568;13.266;2023-02-28T17:44:20;6.60;71.60
4425;DHT22;2225;53.568;13.266;2023-02-28T17:46:48;6.50;71.70
4425;DHT22;2225;53.568;13.266;2023-02-28T17:49:19;6.50;71.90
4425;DHT22;2225;53.568;13.266;2023-02-28T17:51:47;6.40;72.10
4425;DHT22;2225;53.568;13.266;2023-02-28T17:54:14;6.40;72.40
4425;DHT22;2225;53.568;13.266;2023-02-28T17:56:44;6.30;72.50
4425;DHT22;2225;53.568;13.266;2023-02-28T17:59:12;6.30;72.60
4425;DHT22;2225;53.568;13.266;2023-02-28T18:01:39;6.20;72.80
4425;DHT22;2225;53.568;13.266;2023-02-28T18:04:06;6.20;73.00
4425;DHT22;2225;53.568;13.266;2023-02-28T18:06:37;6.10;73.20
4425;DHT22;2225;53.568;13.266;2023-02-28T18:09:14;6.00;73.40
4425;DHT22;2225;53.568;13.266;2023-02-28T18:11:51;6.00;73.60
4425;DHT22;2225;53.568;13.266;2023-02-28T18:14:21;5.90;73.60
4425;DHT22;2225;53.568;13.266;2023-02-28T18:16:51;5.80;73.80
4425;DHT22;2225;53.568;13.266;2023-02-28T18:19:19;5.80;74.00
4425;DHT22;2225;53.568;13.266;2023-02-28T18:21:49;5.70;74.20
4425;DHT22;2225;53.568;13.266;2023-02-28T18:24:19;5.70;74.50
4425;DHT22;2225;53.568;13.266;2023-02-28T18:26:47;5.60;74.70
4425;DHT22;2225;53.568;13.266;2023-02-28T18:29:25;5.50;74.80
4425;DHT22;2225;53.568;13.266;2023-02-28T18:31:54;5.50;75.10
4425;DHT22;2225;53.568;13.266;2023-02-28T18:34:23;5.50;75.20
4425;DHT22;2225;53.568;13.266;2023-02-28T18:36:51;5.40;75.90
4425;DHT22;2225;53.568;13.266;2023-02-28T18:39:18;5.30;75.80
4425;DHT22;2225;53.568;13.266;2023-02-28T18:41:45;5.30;76.10
4425;DHT22;2225;53.568;13.266;2023-02-28T18:44:12;5.30;76.30